Time;durP1;ratioP1;P1;durP2;ratioP2;P2;SDS_P1;SDS_P2;PMS_P1;PMS_P2;Temp;Humidity;BMP_temperature;BMP_pressure;BME280_temperature;BME280_humidity;BME280_pressure;Samples;Min_cycle;Max_cycle;Signal;HPM_P1;HPM_P2
2022/03/18 00:02:03;;;;;;;4.97;4.33;;;;;;;1.87;100.00;102620.09;5032041;28;20183;-73
2022/03/18 00:04:29;;;;;;;9.00;3.93;;;;;;;1.79;100.00;102627.34;5032154;28;20924;-73
2022/03/18 00:06:54;;;;;;;9.47;4.47;;;;;;;1.74;100.00;102631.66;5031835;28;20258;-74
2022/03/18 00:09:19;;;;;;;7.30;3.83;;;;;;;1.60;100.00;102638.84;5032184;28;20172;-74
2022/03/18 00:11:45;;;;;;;9.23;4.30;;;;;;;1.57;100.00;102636.53;5031967;28;20243;-73
2022/03/18 00:14:10;;;;;;;5.67;4.30;;;;;;;1.55;100.00;102641.28;5031953;28;20222;-73
2022/03/18 00:16:35;;;;;;;4.63;4.00;;;;;;;1.48;100.00;102643.09;5031832;28;20180;-73
2022/03/18 00:19:01;;;;;;;5.27;4.73;;;;;;;1.43;100.00;102635.59;5031784;28;20230;-74
2022/03/18 00:21:27;;;;;;;5.20;4.63;;;;;;;1.47;100.00;102638.75;5031724;28;20218;-73
2022/03/18 00:23:52;;;;;;;6.20;4.40;;;;;;;1.43;100.00;102640.16;5013968;28;20222;-73
2022/03/18 00:26:18;;;;;;;7.90;6.27;;;;;;;1.49;100.00;102632.13;5031353;28;20180;-74
2022/03/18 00:28:43;;;;;;;5.33;4.77;;;;;;;1.52;100.00;102641.69;5031257;28;20552;-73
2022/03/18 00:31:09;;;;;;;10.83;5.07;;;;;;;1.42;100.00;102639.31;5032075;28;20876;-74
2022/03/18 00:33:34;;;;;;;5.80;3.97;;;;;;;1.44;100.00;102634.56;5031400;28;20628;-74
2022/03/18 00:36:00;;;;;;;5.77;4.67;;;;;;;1.34;100.00;102641.34;5031296;28;20682;-74
2022/03/18 00:38:26;;;;;;;6.37;4.30;;;;;;;1.28;100.00;102639.41;5031196;28;20682;-73
2022/03/18 00:40:56;;;;;;;5.37;3.70;;;;;;;1.17;100.00;102640.81;5031340;28;20644;-73
2022/03/18 00:43:21;;;;;;;10.03;4.07;;;;;;;1.10;100.00;102640.72;5031285;28;20195;-73
2022/03/18 00:45:47;;;;;;;5.83;4.50;;;;;;;1.11;100.00;102637.00;5031034;28;20180;-73
2022/03/18 00:53:40;;;;;;;9.83;5.43;;;;;;;1.07;100.00;102648.38;5031511;28;20226;-73
2022/03/18 00:56:05;;;;;;;12.17;4.50;;;;;;;1.21;100.00;102647.47;5031092;28;20180;-74
2022/03/18 00:58:30;;;;;;;19.47;5.03;;;;;;;1.21;100.00;102646.63;5030655;28;20168;-73
2022/03/18 01:00:56;;;;;;;5.70;4.17;;;;;;;1.27;100.00;102660.13;5031209;28;20175;-73
2022/03/18 01:03:21;;;;;;;11.30;5.97;;;;;;;1.18;100.00;102650.53;5031036;28;20176;-73
2022/03/18 01:05:46;;;;;;;7.00;4.63;;;;;;;1.04;100.00;102659.53;5031023;28;20259;-73
2022/03/18 01:08:12;;;;;;;4.43;4.13;;;;;;;1.02;100.00;102657.03;5031039;28;20199;-73
2022/03/18 01:10:37;;;;;;;10.50;3.93;;;;;;;0.98;100.00;102662.97;5030652;28;20238;-73
2022/03/18 01:13:03;;;;;;;8.43;4.33;;;;;;;0.96;100.00;102655.09;5030823;28;20207;-74
2022/03/18 01:15:28;;;;;;;8.83;4.43;;;;;;;0.89;100.00;102662.28;5030725;28;20624;-74
2022/03/18 01:17:54;;;;;;;6.83;4.37;;;;;;;0.88;100.00;102661.47;5030449;28;20191;-73
2022/03/18 01:20:19;;;;;;;5.43;4.63;;;;;;;0.79;100.00;102667.16;5030654;28;20168;-74
2022/03/18 01:22:45;;;;;;;5.87;4.93;;;;;;;0.82;100.00;102674.84;5030610;28;20176;-73
2022/03/18 01:25:10;;;;;;;5.17;3.43;;;;;;;0.92;100.00;102669.97;5030636;28;20230;-73
2022/03/18 01:27:35;;;;;;;4.97;3.53;;;;;;;0.84;100.00;102667.41;5012370;28;20655;-74
2022/03/18 01:30:01;;;;;;;5.43;4.13;;;;;;;0.71;100.00;102667.25;5030448;28;20180;-73
2022/03/18 01:32:26;;;;;;;8.20;5.20;;;;;;;0.63;100.00;102660.16;5030673;28;20226;-73
2022/03/18 01:34:53;;;;;;;8.57;4.00;;;;;;;0.66;100.00;102662.47;5037160;28;21185;-74
2022/03/18 01:37:19;;;;;;;9.00;3.73;;;;;;;0.68;100.00;102667.66;5049854;28;20199;-73
2022/03/18 01:39:44;;;;;;;4.87;3.80;;;;;;;0.68;100.00;102662.28;5050149;28;20604;-73
2022/03/18 01:42:09;;;;;;;4.20;3.87;;;;;;;0.72;100.00;102658.16;5050209;28;20175;-73
2022/03/18 01:44:42;;;;;;;5.57;3.13;;;;;;;0.54;100.00;102666.66;5050275;28;20244;-73
2022/03/18 01:47:09;;;;;;;13.17;5.27;;;;;;;0.55;100.00;102669.16;5049650;28;20225;-73
2022/03/18 01:49:35;;;;;;;7.87;4.77;;;;;;;0.63;100.00;102660.16;5049889;28;20193;-73
2022/03/18 01:52:01;;;;;;;5.60;4.53;;;;;;;0.64;100.00;102671.75;5050384;28;20399;-73
2022/03/18 01:54:46;;;;;;;5.97;4.30;;;;;;;0.63;100.00;102680.84;5050235;28;20217;-73
2022/03/18 01:57:20;;;;;;;4.73;4.10;;;;;;;0.74;100.00;102678.50;5050952;28;20262;-72
2022/03/18 01:59:47;;;;;;;11.47;5.10;;;;;;;0.76;100.00;102675.63;5056369;28;20207;-73
2022/03/18 02:02:12;;;;;;;4.53;4.13;;;;;;;0.60;100.00;102687.44;5056804;28;20204;-73
2022/03/18 02:04:39;;;;;;;8.37;4.83;;;;;;;0.57;100.00;102685.94;5056796;28;20250;-72
2022/03/18 02:07:05;;;;;;;7.30;5.37;;;;;;;0.59;100.00;102691.16;5056436;28;20175;-73
2022/03/18 02:09:31;;;;;;;4.63;4.20;;;;;;;0.56;100.00;102692.34;5056624;28;20220;-73
2022/03/18 02:11:57;;;;;;;8.07;4.10;;;;;;;0.41;100.00;102682.66;5056620;28;20567;-74
2022/03/18 02:14:48;;;;;;;6.37;4.00;;;;;;;0.31;100.00;102690.19;5056717;28;20422;-75
2022/03/18 02:17:15;;;;;;;6.23;3.83;;;;;;;0.30;100.00;102689.38;5053537;28;20195;-73
2022/03/18 02:19:44;;;;;;;6.57;4.63;;;;;;;0.31;100.00;102691.03;5056626;28;20179;-73
2022/03/18 02:22:13;;;;;;;7.10;4.07;;;;;;;0.32;100.00;102697.25;5056623;28;20179;-76
2022/03/18 02:24:43;;;;;;;5.63;5.10;;;;;;;0.27;100.00;102697.78;5056576;28;20254;-73
2022/03/18 02:27:10;;;;;;;7.00;5.00;;;;;;;0.25;100.00;102699.81;5056322;28;20183;-73
2022/03/18 02:29:35;;;;;;;5.97;4.43;;;;;;;0.31;100.00;102703.63;5056422;28;20248;-73
2022/03/18 02:32:03;;;;;;;6.30;4.43;;;;;;;0.31;100.00;102720.59;5056487;28;20242;-74
2022/03/18 02:34:28;;;;;;;15.10;5.20;;;;;;;0.23;100.00;102718.00;5056559;28;20199;-75
2022/03/18 02:36:54;;;;;;;11.27;4.33;;;;;;;0.22;100.00;102719.03;5056081;28;20712;-74
2022/03/18 02:39:20;;;;;;;5.30;4.37;;;;;;;0.24;100.00;102717.81;5056653;28;20523;-73
2022/03/18 02:41:45;;;;;;;12.83;6.00;;;;;;;0.31;100.00;102725.16;5056434;28;20175;-73
2022/03/18 02:44:11;;;;;;;7.83;4.80;;;;;;;0.34;100.00;102728.28;5056562;28;20178;-73
2022/03/18 02:46:36;;;;;;;7.50;5.50;;;;;;;0.31;100.00;102725.97;5054969;28;20217;-73
2022/03/18 02:49:04;;;;;;;6.13;5.27;;;;;;;0.34;100.00;102732.84;5056217;28;20189;-73
2022/03/18 02:51:30;;;;;;;6.97;4.53;;;;;;;0.32;100.00;102733.03;5056360;28;20198;-74
2022/03/18 02:53:56;;;;;;;16.90;5.17;;;;;;;0.33;100.00;102737.38;5056314;28;20171;-73
2022/03/18 02:56:22;;;;;;;16.40;5.57;;;;;;;0.36;100.00;102742.38;5056260;28;20179;-74
2022/03/18 02:58:47;;;;;;;8.77;5.50;;;;;;;0.39;100.00;102747.38;5056037;28;20186;-77
2022/03/18 03:01:13;;;;;;;7.90;5.43;;;;;;;0.38;100.00;102756.47;5056046;28;20643;-73
2022/03/18 03:03:38;;;;;;;9.53;5.37;;;;;;;0.41;100.00;102763.31;5056277;28;20650;-73
2022/03/18 03:08:47;;;;;;;5.83;4.60;;;;;;;0.49;100.00;102771.28;5055800;28;20173;-73
2022/03/18 03:11:13;;;;;;;10.13;6.00;;;;;;;0.52;100.00;102777.13;5052983;28;20638;-73
2022/03/18 03:13:38;;;;;;;8.23;6.20;;;;;;;0.50;100.00;102770.28;5053056;28;20167;-74
2022/03/18 03:16:05;;;;;;;7.37;5.47;;;;;;;0.66;100.00;102774.59;5052883;28;20179;-74
2022/03/18 03:18:30;;;;;;;6.73;5.93;;;;;;;0.69;100.00;102768.84;5052665;28;20229;-73
2022/03/18 03:20:56;;;;;;;6.80;5.13;;;;;;;0.66;100.00;102777.28;5052958;28;20198;-73
2022/03/18 03:23:25;;;;;;;7.90;4.50;;;;;;;0.66;100.00;102783.50;5053010;28;20539;-73
2022/03/18 03:25:50;;;;;;;11.97;4.77;;;;;;;0.62;100.00;102784.91;5053171;28;20195;-73
2022/03/18 03:28:19;;;;;;;6.40;5.57;;;;;;;0.58;100.00;102795.22;5052622;28;20643;-74
2022/03/18 03:30:44;;;;;;;6.27;4.97;;;;;;;0.52;100.00;102789.72;5052651;28;20289;-73
2022/03/18 03:33:10;;;;;;;6.07;5.43;;;;;;;0.38;100.00;102798.66;5053021;28;20258;-73
2022/03/18 03:35:36;;;;;;;5.73;4.73;;;;;;;0.24;100.00;102793.06;5053296;28;20167;-73
2022/03/18 03:38:02;;;;;;;8.23;4.33;;;;;;;0.17;100.00;102791.31;5052451;28;20171;-74
2022/03/18 03:40:28;;;;;;;7.00;5.17;;;;;;;0.21;100.00;102795.31;5053280;28;20221;-73
2022/03/18 03:42:54;;;;;;;10.33;4.67;;;;;;;0.21;100.00;102798.00;5052834;28;20449;-74
2022/03/18 03:45:19;;;;;;;6.90;5.50;;;;;;;0.25;100.00;102801.97;5052531;28;20209;-73
2022/03/18 03:47:44;;;;;;;8.70;6.03;;;;;;;0.19;100.00;102806.25;5052194;28;20536;-73
2022/03/18 03:50:11;;;;;;;5.33;4.83;;;;;;;0.20;100.00;102802.53;5052234;28;20175;-73
2022/03/18 03:52:37;;;;;;;5.87;5.37;;;;;;;0.24;100.00;102819.97;5052725;28;20172;-73
2022/03/18 03:55:03;;;;;;;7.30;6.57;;;;;;;0.28;100.00;102820.41;5052305;28;20501;-74
2022/03/18 03:57:29;;;;;;;8.07;5.73;;;;;;;0.21;100.00;102828.41;5051996;28;20253;-73
2022/03/18 03:59:54;;;;;;;7.43;4.93;;;;;;;0.10;100.00;102828.84;5051884;28;20171;-74
2022/03/18 04:02:20;;;;;;;6.90;4.63;;;;;;;0.10;100.00;102839.59;5052431;28;20258;-74
2022/03/18 04:04:47;;;;;;;17.53;5.20;;;;;;;0.11;100.00;102846.63;5052110;28;20171;-73
2022/03/18 04:07:12;;;;;;;4.93;4.50;;;;;;;0.13;100.00;102846.44;5051819;28;20247;-74
2022/03/18 04:09:37;;;;;;;7.80;4.50;;;;;;;0.09;100.00;102845.97;5051941;28;20262;-73
2022/03/18 04:12:03;;;;;;;6.13;4.47;;;;;;;0.04;100.00;102848.41;5052361;28;20235;-73
2022/03/18 04:14:28;;;;;;;6.30;5.70;;;;;;;0.05;100.00;102854.59;5052169;28;20182;-73
2022/03/18 04:16:53;;;;;;;6.47;4.90;;;;;;;0.11;100.00;102856.53;5051697;28;20531;-73
2022/03/18 04:19:19;;;;;;;5.40;4.83;;;;;;;0.17;100.00;102861.22;5051755;28;20258;-74
2022/03/18 04:21:44;;;;;;;4.60;4.13;;;;;;;0.12;100.00;102868.97;5051204;28;20178;-74
2022/03/18 04:24:10;;;;;;;6.40;4.77;;;;;;;0.03;100.00;102859.31;5051700;28;20698;-74
2022/03/18 04:26:35;;;;;;;7.03;4.57;;;;;;;-0.05;100.00;102866.44;5051710;28;20175;-74
2022/03/18 04:29:00;;;;;;;5.43;4.73;;;;;;;-0.15;100.00;102871.19;5051228;28;20685;-74
2022/03/18 04:31:26;;;;;;;7.00;4.60;;;;;;;-0.13;100.00;102873.75;5051442;28;20207;-73
2022/03/18 04:33:51;;;;;;;4.50;4.00;;;;;;;-0.08;100.00;102874.84;5051570;28;20182;-74
2022/03/18 04:36:16;;;;;;;3.70;3.27;;;;;;;-0.11;100.00;102877.91;5051826;28;20566;-74
2022/03/18 04:38:42;;;;;;;4.40;4.10;;;;;;;-0.18;100.00;102879.63;5051193;28;20168;-74
2022/03/18 04:41:07;;;;;;;7.57;5.70;;;;;;;-0.10;100.00;102892.19;5051408;28;20186;-73
2022/03/18 04:43:32;;;;;;;5.03;4.53;;;;;;;-0.19;100.00;102890.56;5051397;28;20584;-73
2022/03/18 04:45:58;;;;;;;5.03;4.57;;;;;;;-0.25;100.00;102891.28;5051211;28;20182;-74
2022/03/18 04:48:23;;;;;;;7.10;4.73;;;;;;;-0.26;100.00;102897.69;5050995;28;20411;-74
2022/03/18 04:50:48;;;;;;;8.40;5.13;;;;;;;-0.23;100.00;102889.25;5051101;28;20493;-74
2022/03/18 04:53:14;;;;;;;9.93;6.67;;;;;;;-0.17;100.00;102886.66;5051134;28;20194;-73
2022/03/18 04:55:39;;;;;;;7.73;6.47;;;;;;;-0.17;100.00;102892.03;5051033;28;20167;-74
2022/03/18 04:58:04;;;;;;;23.57;7.30;;;;;;;-0.14;100.00;102896.25;5050741;28;20178;-75
2022/03/18 05:00:30;;;;;;;9.43;6.20;;;;;;;-0.23;100.00;102891.94;5051145;28;20210;-74
2022/03/18 05:02:55;;;;;;;13.23;6.83;;;;;;;-0.17;100.00;102888.53;5051017;28;20175;-74
2022/03/18 05:05:21;;;;;;;8.40;5.90;;;;;;;0.04;100.00;102885.19;5050920;28;20175;-74
2022/03/18 05:07:51;;;;;;;6.50;5.90;;;;;;;0.19;100.00;102888.72;5050479;28;20190;-74
2022/03/18 05:10:17;;;;;;;11.40;7.47;;;;;;;0.33;100.00;102898.69;5050825;28;20175;-74
2022/03/18 05:12:43;;;;;;;8.43;6.67;;;;;;;0.44;100.00;102911.69;5051007;28;20226;-74
2022/03/18 05:15:09;;;;;;;10.50;7.13;;;;;;;0.33;100.00;102911.28;5050717;28;20654;-74
2022/03/18 05:17:34;;;;;;;8.63;6.57;;;;;;;0.13;100.00;102916.31;5050507;28;20171;-74
2022/03/18 05:20:00;;;;;;;12.83;6.87;;;;;;;0.09;100.00;102923.09;5050445;28;20171;-74
2022/03/18 05:22:25;;;;;;;7.67;6.70;;;;;;;0.06;100.00;102926.97;5050563;28;20206;-74
2022/03/18 05:24:52;;;;;;;11.03;6.70;;;;;;;0.16;100.00;102942.88;5050735;28;20167;-76
2022/03/18 05:27:18;;;;;;;6.70;6.13;;;;;;;0.12;100.00;102931.63;5050382;28;20195;-74
2022/03/18 05:29:44;;;;;;;12.10;7.70;;;;;;;-0.08;100.00;102944.72;5050289;28;20663;-74
2022/03/18 05:32:09;;;;;;;11.83;6.13;;;;;;;-0.17;100.00;102948.47;5050341;28;20242;-74
2022/03/18 05:34:34;;;;;;;6.23;5.73;;;;;;;-0.24;100.00;102949.38;5050141;28;20211;-73
2022/03/18 05:37:00;;;;;;;8.33;6.40;;;;;;;-0.31;100.00;102950.06;5050248;28;20205;-74
2022/03/18 05:39:25;;;;;;;11.27;6.90;;;;;;;-0.34;100.00;102947.72;5050561;28;20677;-74
2022/03/18 05:41:51;;;;;;;8.87;6.80;;;;;;;-0.31;100.00;102955.44;5050523;28;20179;-74
2022/03/18 05:44:16;;;;;;;6.90;6.00;;;;;;;-0.30;100.00;102953.56;5050291;28;20612;-74
2022/03/18 05:46:42;;;;;;;9.43;6.83;;;;;;;-0.35;100.00;102955.97;5050209;28;20217;-74
2022/03/18 05:49:07;;;;;;;7.00;6.33;;;;;;;-0.42;100.00;102952.34;5050094;28;20171;-74
2022/03/18 05:51:33;;;;;;;7.27;6.47;;;;;;;-0.33;100.00;102954.78;5050537;28;20587;-75
2022/03/18 05:53:58;;;;;;;9.80;6.07;;;;;;;-0.25;100.00;102966.50;5050386;28;20179;-74
2022/03/18 05:59:08;;;;;;;17.33;6.70;;;;;;;-0.25;100.00;102977.25;5050280;28;20600;-73
2022/03/18 06:01:38;;;;;;;8.17;6.83;;;;;;;-0.17;100.00;102971.81;5049890;28;20171;-74
2022/03/18 06:04:05;;;;;;;6.87;5.93;;;;;;;-0.12;100.00;102982.88;5049983;28;20175;-74
2022/03/18 06:06:30;;;;;;;7.77;5.93;;;;;;;-0.07;100.00;102993.91;5050179;28;20212;-74
2022/03/18 06:11:49;;;;;;;6.73;6.23;;;;;;;-0.04;100.00;102990.84;5049954;28;20213;-74
2022/03/18 06:14:22;;;;;;;7.87;6.83;;;;;;;-0.25;100.00;102993.34;5050329;28;20175;-76
2022/03/18 06:16:58;;;;;;;10.37;6.13;;;;;;;-0.35;100.00;103004.31;5049936;28;20171;-74
2022/03/18 06:19:25;;;;;;;7.50;6.20;;;;;;;-0.12;100.00;103001.69;5049970;28;20850;-75
2022/03/18 06:21:51;;;;;;;5.80;5.20;;;;;;;-0.08;100.00;103008.34;5050003;28;20247;-73
2022/03/18 06:24:18;;;;;;;8.03;6.00;;;;;;;-0.01;100.00;103010.16;5050414;28;20172;-74
2022/03/18 06:26:43;;;;;;;8.63;6.57;;;;;;;-0.08;100.00;103019.94;5049770;28;20570;-74
2022/03/18 06:29:08;;;;;;;10.70;5.63;;;;;;;-0.08;100.00;103025.31;5049734;28;20195;-74
2022/03/18 06:31:35;;;;;;;7.60;5.83;;;;;;;-0.06;100.00;103036.72;5049888;28;20203;-74
2022/03/18 06:34:01;;;;;;;8.53;5.90;;;;;;;-0.05;100.00;103032.19;5049761;28;20198;-75
2022/03/18 06:36:28;;;;;;;8.60;6.23;;;;;;;-0.04;100.00;103042.75;5049798;28;20639;-74
2022/03/18 06:38:53;;;;;;;8.13;5.10;;;;;;;-0.09;100.00;103045.13;5048170;28;20263;-74
2022/03/18 06:41:19;;;;;;;7.00;6.33;;;;;;;-0.05;100.00;103051.00;5050009;28;20635;-74
2022/03/18 06:43:46;;;;;;;8.13;6.57;;;;;;;0.05;100.00;103042.72;5050200;28;20687;-74
2022/03/18 06:46:11;;;;;;;13.17;6.53;;;;;;;0.06;100.00;103045.22;5053532;28;20350;-76
2022/03/18 06:48:37;;;;;;;13.03;6.63;;;;;;;0.03;100.00;103061.72;5053163;28;20266;-74
2022/03/18 06:51:03;;;;;;;7.97;6.70;;;;;;;0.24;100.00;103063.75;5053290;28;20201;-74
2022/03/18 06:53:28;;;;;;;14.77;7.07;;;;;;;0.45;100.00;103069.31;5053338;28;20171;-74
2022/03/18 06:55:54;;;;;;;15.40;7.80;;;;;;;0.59;100.00;103073.94;5053342;28;20688;-74
2022/03/18 06:58:19;;;;;;;12.93;7.27;;;;;;;0.72;100.00;103065.22;5053264;28;20179;-73
2022/03/18 07:00:45;;;;;;;10.33;7.50;;;;;;;0.73;100.00;103060.72;5053177;28;20257;-77
2022/03/18 07:03:10;;;;;;;11.63;9.13;;;;;;;0.82;100.00;103060.44;5053224;28;20209;-75
2022/03/18 07:05:35;;;;;;;10.00;8.83;;;;;;;0.94;100.00;103076.16;5053122;28;20183;-74
2022/03/18 07:08:01;;;;;;;19.37;11.97;;;;;;;0.96;100.00;103069.56;5052927;28;20266;-69
2022/03/18 07:10:26;;;;;;;13.53;10.13;;;;;;;1.03;100.00;103083.97;5053038;28;20270;-75
2022/03/18 07:12:51;;;;;;;16.13;12.77;;;;;;;1.13;100.00;103075.59;5053395;28;20179;-74
2022/03/18 07:15:17;;;;;;;10.03;9.17;;;;;;;1.15;100.00;103082.47;5053372;28;20174;-77
2022/03/18 07:17:58;;;;;;;14.03;11.37;;;;;;;1.29;100.00;103088.06;5052697;28;20171;-74
2022/03/18 07:20:24;;;;;;;13.57;10.10;;;;;;;1.47;100.00;103096.66;5049877;28;20190;-74
2022/03/18 07:23:21;;;;;;;14.47;11.17;;;;;;;1.63;100.00;103095.63;5052485;28;20175;-74
2022/03/18 07:25:48;;;;;;;14.70;11.20;;;;;;;1.63;100.00;103093.75;5025996;28;20183;-74
2022/03/18 07:28:15;;;;;;;15.00;11.27;;;;;;;1.70;100.00;103099.22;5052354;28;20187;-74
2022/03/18 07:30:43;;;;;;;11.50;9.70;;;;;;;1.73;100.00;103098.84;5052533;28;20251;-75
2022/03/18 07:33:10;;;;;;;12.33;10.53;;;;;;;1.84;100.00;103094.84;5052604;28;20179;-77
2022/03/18 07:35:36;;;;;;;11.70;10.17;;;;;;;1.94;100.00;103093.53;5034917;28;20680;-74
2022/03/18 07:38:03;;;;;;;15.50;11.30;;;;;;;2.01;100.00;103097.13;5052344;28;20582;-78
2022/03/18 07:40:29;;;;;;;11.10;9.93;;;;;;;2.11;100.00;103101.41;5034617;28;20184;-75
2022/03/18 07:42:57;;;;;;;13.37;10.27;;;;;;;2.17;100.00;103101.50;5052436;28;20194;-74
2022/03/18 07:45:27;;;;;;;15.53;10.17;;;;;;;2.26;100.00;103105.72;5052322;28;20184;-75
2022/03/18 07:47:55;;;;;;;15.07;10.87;;;;;;;2.41;100.00;103108.38;5052062;28;20179;-74
2022/03/18 07:50:22;;;;;;;13.73;11.17;;;;;;;2.55;100.00;103107.50;5052327;28;20639;-76
2022/03/18 07:52:56;;;;;;;17.13;10.60;;;;;;;2.63;100.00;103098.44;5052302;28;20428;-75
2022/03/18 07:55:27;;;;;;;14.43;10.13;;;;;;;2.74;100.00;103103.31;5051595;28;20217;-74
2022/03/18 07:57:53;;;;;;;13.80;10.90;;;;;;;2.74;100.00;103114.09;5051930;28;20629;-74
2022/03/18 08:00:19;;;;;;;18.33;11.13;;;;;;;2.67;100.00;103114.06;5051969;28;20266;-74
2022/03/18 08:02:47;;;;;;;22.97;11.13;;;;;;;2.77;100.00;103113.75;5052216;28;20536;-74
2022/03/18 08:05:14;;;;;;;16.33;10.90;;;;;;;2.98;100.00;103113.72;5052391;28;20179;-74
2022/03/18 08:07:39;;;;;;;16.87;11.77;;;;;;;3.01;100.00;103123.28;5051735;28;20233;-74
2022/03/18 08:10:06;;;;;;;17.17;10.83;;;;;;;3.04;100.00;103127.44;5051906;28;20183;-75
2022/03/18 08:12:32;;;;;;;11.60;10.47;;;;;;;3.17;100.00;103123.00;5051887;28;20225;-75
2022/03/18 08:14:59;;;;;;;13.97;12.50;;;;;;;3.31;100.00;103133.91;5049785;28;20551;-74
2022/03/18 08:17:26;;;;;;;13.57;12.20;;;;;;;3.40;100.00;103130.88;5048951;28;20182;-74
2022/03/18 08:19:52;;;;;;;15.47;9.87;;;;;;;3.52;100.00;103136.56;5051643;28;20270;-74
2022/03/18 08:22:23;;;;;;;12.13;10.00;;;;;;;3.62;100.00;103147.00;5050023;28;20179;-73
2022/03/18 08:24:49;;;;;;;13.63;8.07;;;;;;;3.68;100.00;103152.47;5051224;28;20183;-74
2022/03/18 08:27:16;;;;;;;12.43;7.20;;;;;;;3.78;100.00;103144.00;5051690;28;20194;-73
2022/03/18 08:29:42;;;;;;;10.27;7.73;;;;;;;3.87;100.00;103148.19;5051134;28;20290;-75
2022/03/18 08:32:12;;;;;;;13.00;6.97;;;;;;;3.85;100.00;103152.97;5051807;28;20735;-74
2022/03/18 08:34:37;;;;;;;14.80;8.87;;;;;;;3.85;100.00;103144.88;5051275;28;20203;-73
2022/03/18 08:37:05;;;;;;;15.43;8.83;;;;;;;4.02;100.00;103134.53;5042676;28;20171;-74
2022/03/18 08:39:34;;;;;;;11.70;7.73;;;;;;;4.06;100.00;103142.06;5031463;28;20180;-75
2022/03/18 08:41:59;;;;;;;8.00;6.83;;;;;;;4.21;100.00;103133.81;5031474;28;20584;-74
2022/03/18 08:44:25;;;;;;;13.03;8.07;;;;;;;4.53;100.00;103144.94;5031147;28;20168;-76
2022/03/18 08:46:50;;;;;;;8.07;5.73;;;;;;;4.62;100.00;103155.34;5031113;28;20176;-75
2022/03/18 08:49:16;;;;;;;15.67;6.00;;;;;;;4.74;100.00;103156.41;5021465;28;20598;-73
2022/03/18 08:51:42;;;;;;;6.87;5.80;;;;;;;4.88;100.00;103162.69;5051031;28;20677;-72
2022/03/18 08:54:07;;;;;;;7.50;5.30;;;;;;;5.06;100.00;103164.78;5051190;28;20254;-75
2022/03/18 08:56:33;;;;;;;7.47;4.00;;;;;;;5.11;100.00;103166.91;5033184;28;20190;-74
2022/03/18 08:58:59;;;;;;;5.83;2.90;;;;;;;5.24;100.00;103183.16;5050775;28;20584;-73
2022/03/18 09:01:25;;;;;;;4.83;2.63;;;;;;;5.24;100.00;103194.84;5050976;28;20171;-71
2022/03/18 09:03:51;;;;;;;6.10;3.17;;;;;;;5.37;97.97;103202.16;5050860;28;20619;-74
2022/03/18 09:06:16;;;;;;;7.77;2.80;;;;;;;5.30;95.47;103214.84;5050845;28;20638;-72
2022/03/18 09:08:42;;;;;;;5.03;3.00;;;;;;;5.32;93.48;103221.72;5050587;28;20179;-72
2022/03/18 09:11:08;;;;;;;6.33;2.10;;;;;;;5.44;93.06;103221.09;5044702;28;20211;-74
2022/03/18 09:13:35;;;;;;;4.80;1.90;;;;;;;5.42;90.86;103229.44;5050576;28;20187;-72
2022/03/18 09:16:01;;;;;;;7.27;1.60;;;;;;;5.51;91.01;103235.50;5050835;28;20636;-72
2022/03/18 09:18:26;;;;;;;3.87;2.00;;;;;;;5.55;90.50;103239.47;5050210;28;20175;-73
2022/03/18 09:20:52;;;;;;;2.83;1.73;;;;;;;5.69;90.88;103251.97;5049931;28;20536;-73
2022/03/18 09:23:17;;;;;;;12.20;3.00;;;;;;;5.75;90.71;103239.44;5050365;28;20577;-72
2022/03/18 09:25:42;;;;;;;6.30;2.80;;;;;;;5.85;91.23;103246.13;5050056;28;20594;-74
2022/03/18 09:28:08;;;;;;;10.17;2.70;;;;;;;5.99;91.06;103246.97;5049895;28;20198;-72
2022/03/18 09:30:33;;;;;;;6.87;2.10;;;;;;;6.13;90.48;103254.03;5049235;28;20218;-72
2022/03/18 09:32:58;;;;;;;8.70;2.00;;;;;;;6.18;89.05;103258.81;5050536;28;20175;-70
2022/03/18 09:35:25;;;;;;;7.33;2.33;;;;;;;6.25;87.92;103265.91;5050424;28;20175;-72
2022/03/18 09:37:51;;;;;;;4.67;2.73;;;;;;;6.37;87.57;103262.53;5050253;28;20198;-72
2022/03/18 09:40:16;;;;;;;8.23;3.63;;;;;;;6.50;86.85;103265.19;5050470;28;20664;-72
2022/03/18 09:43:05;;;;;;;4.13;2.60;;;;;;;6.59;86.57;103282.09;5050277;28;20353;-72
2022/03/18 09:45:33;;;;;;;5.53;3.23;;;;;;;6.65;86.79;103286.66;5050470;28;20262;-72
2022/03/18 09:48:00;;;;;;;3.33;2.37;;;;;;;6.66;86.57;103277.47;5050159;28;20186;-72
2022/03/18 09:50:26;;;;;;;8.43;4.57;;;;;;;6.73;85.62;103287.25;5050338;28;20282;-72
2022/03/18 09:52:52;;;;;;;4.43;2.53;;;;;;;6.68;84.42;103283.53;5050289;28;20187;-72
2022/03/18 09:55:17;;;;;;;8.17;2.63;;;;;;;6.70;84.33;103292.28;5050172;28;20206;-72
2022/03/18 09:57:43;;;;;;;6.53;3.73;;;;;;;6.79;83.85;103299.13;5050001;28;20532;-72
2022/03/18 10:00:09;;;;;;;5.23;2.53;;;;;;;6.85;83.25;103293.69;5050240;28;20267;-71
2022/03/18 10:02:35;;;;;;;6.10;2.47;;;;;;;6.89;83.08;103307.66;5050331;28;20186;-72
2022/03/18 10:05:08;;;;;;;4.10;2.20;;;;;;;6.99;82.94;103315.38;5050116;28;20560;-72
2022/03/18 10:07:34;;;;;;;3.87;2.33;;;;;;;6.69;81.75;103320.50;5049893;28;20167;-72
2022/03/18 10:10:02;;;;;;;3.17;2.20;;;;;;;6.69;82.60;103323.22;5050502;28;20529;-72
2022/03/18 10:12:48;;;;;;;4.87;2.67;;;;;;;6.84;82.59;103323.78;5048664;28;20210;-72
2022/03/18 10:15:20;;;;;;;4.33;2.80;;;;;;;6.99;82.78;103328.97;5050411;28;20274;-72
2022/03/18 10:17:52;;;;;;;7.77;2.80;;;;;;;7.20;82.60;103339.50;5050179;28;20201;-72
2022/03/18 10:20:45;;;;;;;6.97;2.77;;;;;;;7.27;81.61;103334.03;5052130;28;20279;-71
2022/03/18 10:23:25;;;;;;;5.23;2.50;;;;;;;7.33;82.64;103335.88;5054174;28;20587;-72
2022/03/18 10:25:57;;;;;;;3.97;2.60;;;;;;;7.08;82.44;103339.34;5054137;28;20310;-72
2022/03/18 10:28:38;;;;;;;6.13;2.60;;;;;;;7.36;83.32;103335.44;5054042;28;20654;-71
2022/03/18 10:31:20;;;;;;;4.03;3.30;;;;;;;7.51;81.84;103335.13;5053958;28;20232;-72
2022/03/18 10:39:30;;;;;;;4.80;1.90;;;;;;;7.71;80.42;103346.72;5053791;28;20194;-72
2022/03/18 10:42:01;;;;;;;4.10;2.30;;;;;;;7.78;79.60;103342.06;5054002;28;20167;-72
2022/03/18 10:44:46;;;;;;;4.50;2.77;;;;;;;7.72;80.79;103348.38;5053693;28;20168;-72
2022/03/18 10:47:26;;;;;;;7.33;3.20;;;;;;;7.51;80.78;103354.16;5052777;28;20241;-72
2022/03/18 10:50:10;;;;;;;6.53;3.30;;;;;;;7.45;81.31;103364.88;5053889;28;20776;-72
2022/03/18 10:52:36;;;;;;;6.33;2.90;;;;;;;7.76;80.84;103361.31;5053493;28;20203;-72
2022/03/18 10:55:19;;;;;;;6.13;2.23;;;;;;;8.05;78.98;103362.56;5053468;28;20320;-72
2022/03/18 10:57:51;;;;;;;8.87;2.53;;;;;;;7.93;78.35;103358.88;5051890;28;20542;-72
2022/03/18 11:00:21;;;;;;;5.33;2.93;;;;;;;7.99;78.68;103352.56;5053570;28;20176;-72
2022/03/18 11:02:48;;;;;;;7.43;3.13;;;;;;;8.15;79.63;103355.78;5053458;28;20233;-72
2022/03/18 11:05:14;;;;;;;7.57;3.17;;;;;;;8.01;79.10;103361.34;5053281;28;20214;-72
2022/03/18 11:07:43;;;;;;;5.13;3.33;;;;;;;8.03;79.37;103361.13;5052988;28;20555;-71
2022/03/18 11:12:59;;;;;;;5.73;2.23;;;;;;;8.32;77.89;103371.31;5053435;28;20210;-72
2022/03/18 11:15:26;;;;;;;6.13;2.03;;;;;;;8.34;77.67;103366.53;5053123;28;20206;-72
2022/03/18 11:17:55;;;;;;;6.87;2.53;;;;;;;8.54;76.22;103374.50;5049597;28;20241;-72
2022/03/18 11:20:21;;;;;;;5.90;2.67;;;;;;;8.32;76.71;103365.03;5052126;28;20175;-73
2022/03/18 11:22:50;;;;;;;4.53;2.00;;;;;;;8.53;76.28;103369.25;5050607;28;20196;-72
2022/03/18 11:25:16;;;;;;;5.37;2.50;;;;;;;8.65;77.25;103362.00;5053159;28;20264;-72
2022/03/18 11:27:44;;;;;;;5.73;2.63;;;;;;;8.69;77.07;103365.97;5053067;28;20247;-72
2022/03/18 11:30:18;;;;;;;5.30;2.63;;;;;;;8.80;75.93;103353.44;5052321;28;20250;-72
2022/03/18 11:32:44;;;;;;;6.40;2.57;;;;;;;8.81;75.60;103364.13;5053403;28;20175;-72
2022/03/18 11:35:10;;;;;;;6.13;2.93;;;;;;;8.86;76.31;103364.28;5053142;28;20180;-72
2022/03/18 11:37:35;;;;;;;5.87;2.67;;;;;;;8.88;77.00;103356.72;5052779;28;20176;-74
2022/03/18 11:40:19;;;;;;;12.03;3.20;;;;;;;9.03;76.31;103355.50;5035150;28;20175;-72
2022/03/18 11:42:45;;;;;;;4.47;2.50;;;;;;;9.06;76.10;103350.41;5035355;28;20539;-74
2022/03/18 11:45:30;;;;;;;3.90;2.47;;;;;;;9.05;75.13;103343.28;5052861;28;20175;-71